Terminal Aerodrome Forecast
Issued by NWS

Home | Current Version | Previous Version | Text Only | Print | Product List | Glossary Off
Versions: 1 2 3 4 5 6 7 8 9 10 11 12 13 14 15

000
FTUS43 KGRB 251600 AAA
TAFMTW
TAF AMD
KMTW 251633Z 2517/2612 06013G20KT P6SM -SN OVC028
     FM252100 04013G19KT P6SM SCT030
     FM252300 03007KT P6SM SCT200
     FM260500 VRB03KT P6SM SCT100 BKN200
     FM261000 VRB03KT P6SM BKN090=

USA.gov is the U.S. government's official web portal to all federal, state and local government web resources and services.